sensor_id;sensor_type;location;lat;lon;timestamp;pressure;altitude;pressure_sealevel;temperature;humidity
21129;BME280;10722;51.910;8.352;2023-06-04T00:01:23;101352.44;;;10.58;72.45
21129;BME280;10722;51.910;8.352;2023-06-04T00:04:09;101367.59;;;10.44;73.94
21129;BME280;10722;51.910;8.352;2023-06-04T00:06:54;101370.19;;;10.16;74.77
21129;BME280;10722;51.910;8.352;2023-06-04T00:09:39;101370.22;;;10.17;74.74
21129;BME280;10722;51.910;8.352;2023-06-04T00:12:25;101344.81;;;10.31;72.87
21129;BME280;10722;51.910;8.352;2023-06-04T00:15:10;101351.09;;;10.41;72.94
21129;BME280;10722;51.910;8.352;2023-06-04T00:17:55;101336.59;;;10.46;71.74
21129;BME280;10722;51.910;8.352;2023-06-04T00:20:41;101331.00;;;10.30;72.20
21129;BME280;10722;51.910;8.352;2023-06-04T00:23:26;101323.28;;;10.03;73.02
21129;BME280;10722;51.910;8.352;2023-06-04T00:26:11;101332.53;;;9.95;73.31
21129;BME280;10722;51.910;8.352;2023-06-04T00:28:57;101340.78;;;9.83;74.15
21129;BME280;10722;51.910;8.352;2023-06-04T00:31:42;101345.47;;;9.68;74.89
21129;BME280;10722;51.910;8.352;2023-06-04T00:34:27;101366.78;;;9.61;76.42
21129;BME280;10722;51.910;8.352;2023-06-04T00:37:12;101364.69;;;9.76;76.56
21129;BME280;10722;51.910;8.352;2023-06-04T00:39:59;101357.84;;;9.78;76.46
21129;BME280;10722;51.910;8.352;2023-06-04T00:42:44;101349.09;;;10.02;75.55
21129;BME280;10722;51.910;8.352;2023-06-04T00:45:29;101318.16;;;10.05;72.96
21129;BME280;10722;51.910;8.352;2023-06-04T00:48:15;101271.69;;;10.37;69.34
21129;BME280;10722;51.910;8.352;2023-06-04T00:51:00;101277.09;;;10.46;69.59
21129;BME280;10722;51.910;8.352;2023-06-04T00:53:46;101280.72;;;10.52;69.73
21129;BME280;10722;51.910;8.352;2023-06-04T00:56:31;101249.94;;;10.63;67.82
21129;BME280;10722;51.910;8.352;2023-06-04T00:59:17;101247.59;;;10.72;67.74
21129;BME280;10722;51.910;8.352;2023-06-04T01:02:09;101240.94;;;10.82;67.01
21129;BME280;10722;51.910;8.352;2023-06-04T01:07:48;101236.63;;;10.83;67.50
21129;BME280;10722;51.910;8.352;2023-06-04T01:10:33;101276.78;;;10.67;69.54
21129;BME280;10722;51.910;8.352;2023-06-04T01:13:18;101295.13;;;10.43;70.97
21129;BME280;10722;51.910;8.352;2023-06-04T01:16:04;101290.41;;;10.60;70.68
21129;BME280;10722;51.910;8.352;2023-06-04T01:18:50;101215.78;;;10.76;66.96
21129;BME280;10722;51.910;8.352;2023-06-04T01:21:36;101187.84;;;10.99;64.95
21129;BME280;10722;51.910;8.352;2023-06-04T01:24:25;101200.88;;;11.03;66.08
21129;BME280;10722;51.910;8.352;2023-06-04T01:27:13;101257.16;;;10.75;69.00
21129;BME280;10722;51.910;8.352;2023-06-04T01:29:59;101282.31;;;10.47;71.24
21129;BME280;10722;51.910;8.352;2023-06-04T01:32:44;101288.00;;;10.34;71.42
21129;BME280;10722;51.910;8.352;2023-06-04T01:35:30;101307.09;;;10.09;72.58
21129;BME280;10722;51.910;8.352;2023-06-04T01:38:15;101325.09;;;9.77;74.96
21129;BME280;10722;51.910;8.352;2023-06-04T01:41:00;101348.91;;;9.67;76.76
21129;BME280;10722;51.910;8.352;2023-06-04T01:43:45;101353.53;;;9.77;77.59
21129;BME280;10722;51.910;8.352;2023-06-04T01:46:31;101358.03;;;9.56;78.56
21129;BME280;10722;51.910;8.352;2023-06-04T01:49:16;101351.19;;;9.58;78.88
21129;BME280;10722;51.910;8.352;2023-06-04T01:52:02;101344.56;;;9.66;78.17
21129;BME280;10722;51.910;8.352;2023-06-04T01:54:47;101349.13;;;9.46;79.25
21129;BME280;10722;51.910;8.352;2023-06-04T01:57:33;101348.97;;;9.43;79.18
21129;BME280;10722;51.910;8.352;2023-06-04T02:00:19;101357.03;;;9.25;80.10
21129;BME280;10722;51.910;8.352;2023-06-04T02:03:04;101360.44;;;9.24;80.04
21129;BME280;10722;51.910;8.352;2023-06-04T02:05:50;101353.72;;;9.29;79.48
21129;BME280;10722;51.910;8.352;2023-06-04T02:08:35;101361.31;;;9.25;80.05
21129;BME280;10722;51.910;8.352;2023-06-04T02:11:20;101360.44;;;9.24;80.80
21129;BME280;10722;51.910;8.352;2023-06-04T02:14:05;101351.34;;;9.35;80.57
21129;BME280;10722;51.910;8.352;2023-06-04T02:16:51;101353.28;;;9.15;81.67
21129;BME280;10722;51.910;8.352;2023-06-04T02:19:36;101376.72;;;8.96;83.21
21129;BME280;10722;51.910;8.352;2023-06-04T02:22:21;101390.69;;;9.03;85.17
21129;BME280;10722;51.910;8.352;2023-06-04T02:25:07;101389.22;;;8.85;85.95
21129;BME280;10722;51.910;8.352;2023-06-04T02:28:00;101386.44;;;8.79;87.03
21129;BME280;10722;51.910;8.352;2023-06-04T02:30:48;101384.81;;;8.59;86.30
21129;BME280;10722;51.910;8.352;2023-06-04T02:33:34;101383.75;;;8.76;86.04
21129;BME280;10722;51.910;8.352;2023-06-04T02:36:19;101397.66;;;9.05;86.41
21129;BME280;10722;51.910;8.352;2023-06-04T02:39:05;101386.16;;;8.95;85.07
21129;BME280;10722;51.910;8.352;2023-06-04T02:41:50;101375.84;;;8.71;84.98
21129;BME280;10722;51.910;8.352;2023-06-04T02:44:35;101380.56;;;8.59;85.57
21129;BME280;10722;51.910;8.352;2023-06-04T02:47:21;101376.84;;;8.51;85.52
21129;BME280;10722;51.910;8.352;2023-06-04T02:50:06;101380.63;;;8.38;85.78
21129;BME280;10722;51.910;8.352;2023-06-04T02:52:52;101382.53;;;8.66;85.90
21129;BME280;10722;51.910;8.352;2023-06-04T02:55:37;101384.25;;;8.66;85.91
21129;BME280;10722;51.910;8.352;2023-06-04T02:58:24;101367.50;;;8.79;85.08
21129;BME280;10722;51.910;8.352;2023-06-04T03:01:17;101361.19;;;8.70;83.89
21129;BME280;10722;51.910;8.352;2023-06-04T03:04:02;101358.06;;;8.79;84.12
21129;BME280;10722;51.910;8.352;2023-06-04T03:06:48;101360.22;;;8.43;84.46
21129;BME280;10722;51.910;8.352;2023-06-04T03:09:33;101356.72;;;8.66;84.12
21129;BME280;10722;51.910;8.352;2023-06-04T03:12:18;101360.13;;;8.89;84.11
21129;BME280;10722;51.910;8.352;2023-06-04T03:15:04;101355.19;;;8.95;83.37
21129;BME280;10722;51.910;8.352;2023-06-04T03:17:50;101329.97;;;8.88;82.15
21129;BME280;10722;51.910;8.352;2023-06-04T03:20:35;101330.53;;;8.54;82.29
21129;BME280;10722;51.910;8.352;2023-06-04T03:23:21;101337.16;;;8.25;82.96
21129;BME280;10722;51.910;8.352;2023-06-04T03:26:07;101343.41;;;8.54;83.37
21129;BME280;10722;51.910;8.352;2023-06-04T03:28:52;101329.66;;;8.53;82.43
21129;BME280;10722;51.910;8.352;2023-06-04T03:31:38;101335.19;;;8.18;83.28
21129;BME280;10722;51.910;8.352;2023-06-04T03:34:23;101347.75;;;8.08;83.69
21129;BME280;10722;51.910;8.352;2023-06-04T03:37:08;101355.69;;;8.15;84.62
21129;BME280;10722;51.910;8.352;2023-06-04T03:39:53;101351.06;;;8.28;84.04
21129;BME280;10722;51.910;8.352;2023-06-04T03:42:41;101342.84;;;8.39;83.41
21129;BME280;10722;51.910;8.352;2023-06-04T03:45:27;101338.09;;;8.49;82.79
21129;BME280;10722;51.910;8.352;2023-06-04T03:48:12;101329.38;;;8.46;81.99
21129;BME280;10722;51.910;8.352;2023-06-04T03:50:57;101336.28;;;8.47;82.96
21129;BME280;10722;51.910;8.352;2023-06-04T03:53:42;101344.19;;;8.29;83.15
21129;BME280;10722;51.910;8.352;2023-06-04T03:56:28;101363.09;;;8.52;83.67
21129;BME280;10722;51.910;8.352;2023-06-04T03:59:13;101368.22;;;8.74;84.23
21129;BME280;10722;51.910;8.352;2023-06-04T04:01:59;101363.97;;;8.52;84.03
21129;BME280;10722;51.910;8.352;2023-06-04T04:04:44;101359.22;;;8.39;83.88
21129;BME280;10722;51.910;8.352;2023-06-04T04:07:29;101362.13;;;8.26;84.54
21129;BME280;10722;51.910;8.352;2023-06-04T04:10:14;101369.91;;;8.27;85.76
21129;BME280;10722;51.910;8.352;2023-06-04T04:13:00;101391.16;;;8.43;87.01
21129;BME280;10722;51.910;8.352;2023-06-04T04:15:45;101381.06;;;8.73;86.14
21129;BME280;10722;51.910;8.352;2023-06-04T04:18:35;101367.91;;;8.91;84.73
21129;BME280;10722;51.910;8.352;2023-06-04T04:21:20;101357.31;;;8.83;84.32
21129;BME280;10722;51.910;8.352;2023-06-04T04:24:06;101351.03;;;8.75;83.97
21129;BME280;10722;51.910;8.352;2023-06-04T04:26:54;101356.94;;;8.72;84.40
21129;BME280;10722;51.910;8.352;2023-06-04T04:29:40;101367.22;;;8.71;84.77
21129;BME280;10722;51.910;8.352;2023-06-04T04:32:25;101365.81;;;8.79;84.73
21129;BME280;10722;51.910;8.352;2023-06-04T04:35:10;101368.03;;;8.94;84.77
21129;BME280;10722;51.910;8.352;2023-06-04T04:37:56;101364.84;;;9.27;84.55
21129;BME280;10722;51.910;8.352;2023-06-04T04:40:41;101350.78;;;9.46;83.61
21129;BME280;10722;51.910;8.352;2023-06-04T04:43:32;101358.31;;;9.65;83.54
21129;BME280;10722;51.910;8.352;2023-06-04T04:46:18;101347.00;;;9.88;82.04
21129;BME280;10722;51.910;8.352;2023-06-04T04:49:04;101338.13;;;9.80;81.64
21129;BME280;10722;51.910;8.352;2023-06-04T04:51:49;101333.13;;;9.86;81.85
21129;BME280;10722;51.910;8.352;2023-06-04T04:54:34;101333.38;;;9.94;81.17
21129;BME280;10722;51.910;8.352;2023-06-04T04:57:19;101341.03;;;10.21;81.12
21129;BME280;10722;51.910;8.352;2023-06-04T05:00:05;101332.19;;;10.42;80.34
21129;BME280;10722;51.910;8.352;2023-06-04T05:02:51;101332.75;;;10.63;79.80
21129;BME280;10722;51.910;8.352;2023-06-04T05:05:36;101327.91;;;10.75;78.88
21129;BME280;10722;51.910;8.352;2023-06-04T05:08:21;101320.66;;;10.95;78.34
21129;BME280;10722;51.910;8.352;2023-06-04T05:11:06;101303.69;;;11.07;77.02
21129;BME280;10722;51.910;8.352;2023-06-04T05:13:52;101292.69;;;11.17;76.21
21129;BME280;10722;51.910;8.352;2023-06-04T05:16:38;101282.72;;;11.32;75.79
21129;BME280;10722;51.910;8.352;2023-06-04T05:19:26;101293.56;;;11.54;75.58
21129;BME280;10722;51.910;8.352;2023-06-04T05:22:12;101281.09;;;11.77;74.98
21129;BME280;10722;51.910;8.352;2023-06-04T05:24:57;101280.00;;;12.05;74.72
21129;BME280;10722;51.910;8.352;2023-06-04T05:27:43;101267.56;;;12.32;73.25
21129;BME280;10722;51.910;8.352;2023-06-04T05:30:28;101232.56;;;12.56;71.09
21129;BME280;10722;51.910;8.352;2023-06-04T05:33:13;101195.63;;;12.74;68.71
21129;BME280;10722;51.910;8.352;2023-06-04T05:35:59;101150.06;;;12.93;66.19
21129;BME280;10722;51.910;8.352;2023-06-04T05:38:44;101153.94;;;13.22;65.36
21129;BME280;10722;51.910;8.352;2023-06-04T05:41:29;101130.91;;;13.49;63.46
21129;BME280;10722;51.910;8.352;2023-06-04T05:44:15;101110.09;;;13.49;62.49
21129;BME280;10722;51.910;8.352;2023-06-04T05:47:00;101101.63;;;13.63;61.09
21129;BME280;10722;51.910;8.352;2023-06-04T05:49:47;101112.16;;;13.74;60.78
21129;BME280;10722;51.910;8.352;2023-06-04T05:52:33;101121.88;;;13.95;61.01
21129;BME280;10722;51.910;8.352;2023-06-04T05:55:19;101134.31;;;14.24;60.67
21129;BME280;10722;51.910;8.352;2023-06-04T05:58:04;101114.44;;;14.33;60.03
21129;BME280;10722;51.910;8.352;2023-06-04T06:00:50;101127.50;;;14.41;59.53
21129;BME280;10722;51.910;8.352;2023-06-04T06:03:35;101119.84;;;14.58;59.06
21129;BME280;10722;51.910;8.352;2023-06-04T06:06:20;101141.72;;;14.80;59.51
21129;BME280;10722;51.910;8.352;2023-06-04T06:09:06;101138.44;;;15.07;58.82
21129;BME280;10722;51.910;8.352;2023-06-04T06:11:51;101124.47;;;14.96;57.82
21129;BME280;10722;51.910;8.352;2023-06-04T06:14:37;101127.22;;;15.25;57.11
21129;BME280;10722;51.910;8.352;2023-06-04T06:17:22;101130.56;;;15.02;57.68
21129;BME280;10722;51.910;8.352;2023-06-04T06:20:08;101137.69;;;15.33;56.75
21129;BME280;10722;51.910;8.352;2023-06-04T06:22:53;101140.34;;;15.45;56.81
21129;BME280;10722;51.910;8.352;2023-06-04T06:25:39;101152.66;;;15.72;56.67
21129;BME280;10722;51.910;8.352;2023-06-04T06:28:24;101140.53;;;15.91;55.72
21129;BME280;10722;51.910;8.352;2023-06-04T06:31:09;101119.66;;;16.06;54.88
21129;BME280;10722;51.910;8.352;2023-06-04T06:33:55;101118.81;;;16.26;54.18
21129;BME280;10722;51.910;8.352;2023-06-04T06:36:40;101109.25;;;16.25;53.46
21129;BME280;10722;51.910;8.352;2023-06-04T06:39:25;101095.34;;;16.33;52.70
21129;BME280;10722;51.910;8.352;2023-06-04T06:42:11;101105.75;;;16.41;52.99
21129;BME280;10722;51.910;8.352;2023-06-04T06:44:56;101083.09;;;16.60;51.72
21129;BME280;10722;51.910;8.352;2023-06-04T06:47:42;101098.78;;;16.82;51.50
21129;BME280;10722;51.910;8.352;2023-06-04T06:50:27;101078.75;;;16.82;50.47
21129;BME280;10722;51.910;8.352;2023-06-04T06:53:13;101116.16;;;16.99;51.54
21129;BME280;10722;51.910;8.352;2023-06-04T06:55:58;101090.00;;;17.06;50.61
21129;BME280;10722;51.910;8.352;2023-06-04T06:58:46;101115.16;;;17.40;50.57
21129;BME280;10722;51.910;8.352;2023-06-04T07:01:32;101108.91;;;17.67;49.54
21129;BME280;10722;51.910;8.352;2023-06-04T07:04:17;101141.13;;;17.79;50.37
21129;BME280;10722;51.910;8.352;2023-06-04T07:07:02;101110.66;;;17.68;49.44
21129;BME280;10722;51.910;8.352;2023-06-04T07:09:48;101103.53;;;17.90;48.51
21129;BME280;10722;51.910;8.352;2023-06-04T07:12:33;101100.16;;;17.72;49.01
21129;BME280;10722;51.910;8.352;2023-06-04T07:15:18;101106.22;;;17.81;48.87
21129;BME280;10722;51.910;8.352;2023-06-04T07:18:04;101115.72;;;18.01;48.80
21129;BME280;10722;51.910;8.352;2023-06-04T07:20:50;101106.66;;;18.40;48.22
21129;BME280;10722;51.910;8.352;2023-06-04T07:23:35;101101.44;;;18.40;48.21
21129;BME280;10722;51.910;8.352;2023-06-04T07:26:20;101089.09;;;18.50;47.67
21129;BME280;10722;51.910;8.352;2023-06-04T07:29:06;101111.72;;;18.62;48.38
21129;BME280;10722;51.910;8.352;2023-06-04T07:31:51;101095.63;;;19.01;47.49
21129;BME280;10722;51.910;8.352;2023-06-04T07:34:39;101106.81;;;19.16;47.39
21129;BME280;10722;51.910;8.352;2023-06-04T07:37:25;101110.19;;;19.25;46.98
21129;BME280;10722;51.910;8.352;2023-06-04T07:40:11;101096.16;;;19.30;46.65
21129;BME280;10722;51.910;8.352;2023-06-04T07:42:57;101090.78;;;19.40;46.29
21129;BME280;10722;51.910;8.352;2023-06-04T07:45:42;101087.66;;;19.77;45.64
21129;BME280;10722;51.910;8.352;2023-06-04T07:48:28;101066.72;;;19.73;44.99
21129;BME280;10722;51.910;8.352;2023-06-04T07:51:14;101078.69;;;19.90;45.11
21129;BME280;10722;51.910;8.352;2023-06-04T07:53:59;101050.97;;;19.73;44.19
21129;BME280;10722;51.910;8.352;2023-06-04T07:56:44;101033.88;;;20.01;42.72
21129;BME280;10722;51.910;8.352;2023-06-04T07:59:29;101024.84;;;20.18;42.41
21129;BME280;10722;51.910;8.352;2023-06-04T08:02:15;100998.28;;;20.36;40.74
21129;BME280;10722;51.910;8.352;2023-06-04T08:05:00;101057.16;;;20.74;42.76
21129;BME280;10722;51.910;8.352;2023-06-04T08:07:46;101033.44;;;20.77;41.49
21129;BME280;10722;51.910;8.352;2023-06-04T08:10:31;101012.84;;;20.55;40.88
21129;BME280;10722;51.910;8.352;2023-06-04T08:13:17;101001.22;;;20.66;40.21
21129;BME280;10722;51.910;8.352;2023-06-04T08:16:02;101011.34;;;20.86;40.66
21129;BME280;10722;51.910;8.352;2023-06-04T08:18:47;101000.59;;;20.98;39.94
21129;BME280;10722;51.910;8.352;2023-06-04T08:21:33;101018.44;;;21.24;40.43
21129;BME280;10722;51.910;8.352;2023-06-04T08:24:18;101007.91;;;20.84;40.58
21129;BME280;10722;51.910;8.352;2023-06-04T08:27:04;101020.06;;;21.30;40.62
21129;BME280;10722;51.910;8.352;2023-06-04T08:29:49;100990.69;;;21.09;40.08
21129;BME280;10722;51.910;8.352;2023-06-04T08:32:34;100964.88;;;21.26;38.47
21129;BME280;10722;51.910;8.352;2023-06-04T08:35:20;100951.34;;;21.43;37.95
21129;BME280;10722;51.910;8.352;2023-06-04T08:38:05;100960.09;;;21.44;37.64
21129;BME280;10722;51.910;8.352;2023-06-04T08:40:58;100922.09;;;21.17;36.76
21129;BME280;10722;51.910;8.352;2023-06-04T08:43:50;100930.50;;;20.95;37.32
21129;BME280;10722;51.910;8.352;2023-06-04T08:46:39;100954.88;;;21.42;37.47
21129;BME280;10722;51.910;8.352;2023-06-04T08:49:25;100962.25;;;21.64;37.25
21129;BME280;10722;51.910;8.352;2023-06-04T08:52:43;100927.13;;;21.27;37.23
21129;BME280;10722;51.910;8.352;2023-06-04T08:55:28;101005.63;;;21.85;38.89
21129;BME280;10722;51.910;8.352;2023-06-04T08:58:14;100912.13;;;21.31;36.41
21129;BME280;10722;51.910;8.352;2023-06-04T09:01:00;100975.50;;;21.61;37.95
21129;BME280;10722;51.910;8.352;2023-06-04T09:03:46;100957.47;;;22.14;36.85
21129;BME280;10722;51.910;8.352;2023-06-04T09:06:33;100950.25;;;22.22;36.62
21129;BME280;10722;51.910;8.352;2023-06-04T09:09:18;100955.75;;;22.46;36.39
21129;BME280;10722;51.910;8.352;2023-06-04T09:12:08;100920.59;;;22.14;35.62
21129;BME280;10722;51.910;8.352;2023-06-04T09:14:55;100966.44;;;22.72;36.21
21129;BME280;10722;51.910;8.352;2023-06-04T09:17:40;100955.16;;;22.67;35.96
21129;BME280;10722;51.910;8.352;2023-06-04T09:20:27;100930.22;;;22.48;35.32
21129;BME280;10722;51.910;8.352;2023-06-04T09:23:15;100908.66;;;21.66;35.65
21129;BME280;10722;51.910;8.352;2023-06-04T09:26:10;100949.06;;;22.00;36.53
21129;BME280;10722;51.910;8.352;2023-06-04T09:28:57;100988.25;;;22.46;37.07
21129;BME280;10722;51.910;8.352;2023-06-04T09:31:58;100929.78;;;22.32;35.51
21129;BME280;10722;51.910;8.352;2023-06-04T09:34:44;100957.00;;;22.64;35.57
21129;BME280;10722;51.910;8.352;2023-06-04T09:37:29;100917.31;;;22.38;35.03
21129;BME280;10722;51.910;8.352;2023-06-04T09:40:14;100950.66;;;22.69;35.93
21129;BME280;10722;51.910;8.352;2023-06-04T09:43:00;100965.53;;;23.03;36.13
21129;BME280;10722;51.910;8.352;2023-06-04T09:45:45;100938.53;;;22.93;34.78
21129;BME280;10722;51.910;8.352;2023-06-04T09:48:31;100905.63;;;22.77;33.74
21129;BME280;10722;51.910;8.352;2023-06-04T09:51:16;100918.50;;;23.17;34.02
21129;BME280;10722;51.910;8.352;2023-06-04T09:54:02;100928.53;;;23.06;34.38
21129;BME280;10722;51.910;8.352;2023-06-04T09:56:48;100927.16;;;22.91;35.02
21129;BME280;10722;51.910;8.352;2023-06-04T09:59:37;100944.34;;;23.06;35.20
21129;BME280;10722;51.910;8.352;2023-06-04T10:02:26;100936.03;;;22.89;35.37
21129;BME280;10722;51.910;8.352;2023-06-04T10:05:15;100940.28;;;23.24;34.91
21129;BME280;10722;51.910;8.352;2023-06-04T10:08:04;100956.41;;;23.43;35.65
21129;BME280;10722;51.910;8.352;2023-06-04T10:10:51;100975.38;;;23.82;35.58
21129;BME280;10722;51.910;8.352;2023-06-04T10:13:48;100926.22;;;23.23;34.85
21129;BME280;10722;51.910;8.352;2023-06-04T10:16:37;100939.78;;;23.66;35.01
21129;BME280;10722;51.910;8.352;2023-06-04T10:19:24;100968.22;;;23.86;35.98
21129;BME280;10722;51.910;8.352;2023-06-04T10:22:09;100905.19;;;23.20;34.50
21129;BME280;10722;51.910;8.352;2023-06-04T10:24:55;100936.69;;;23.53;35.15
21129;BME280;10722;51.910;8.352;2023-06-04T10:27:40;100943.13;;;23.73;35.07
21129;BME280;10722;51.910;8.352;2023-06-04T10:30:25;100918.59;;;23.67;34.17
21129;BME280;10722;51.910;8.352;2023-06-04T10:33:11;100943.78;;;24.29;34.68
21129;BME280;10722;51.910;8.352;2023-06-04T10:35:56;100916.34;;;24.08;33.76
21129;BME280;10722;51.910;8.352;2023-06-04T10:38:50;100938.19;;;24.13;34.36
21129;BME280;10722;51.910;8.352;2023-06-04T10:41:39;100949.66;;;24.37;34.72
21129;BME280;10722;51.910;8.352;2023-06-04T10:44:25;100915.59;;;24.77;33.44
21129;BME280;10722;51.910;8.352;2023-06-04T10:47:26;100891.09;;;24.00;33.11
21129;BME280;10722;51.910;8.352;2023-06-04T10:50:13;100934.47;;;23.94;35.02
21129;BME280;10722;51.910;8.352;2023-06-04T10:52:58;100901.78;;;24.69;32.69
21129;BME280;10722;51.910;8.352;2023-06-04T10:55:48;100899.06;;;24.48;33.37
21129;BME280;10722;51.910;8.352;2023-06-04T10:58:34;100948.84;;;24.84;34.27
21129;BME280;10722;51.910;8.352;2023-06-04T11:01:27;100940.41;;;25.20;33.67
21129;BME280;10722;51.910;8.352;2023-06-04T11:04:23;100930.56;;;25.45;33.35
21129;BME280;10722;51.910;8.352;2023-06-04T11:07:09;100942.78;;;25.04;34.69
21129;BME280;10722;51.910;8.352;2023-06-04T11:09:55;100896.72;;;24.39;33.61
21129;BME280;10722;51.910;8.352;2023-06-04T11:12:47;100925.38;;;24.51;34.66
21129;BME280;10722;51.910;8.352;2023-06-04T11:15:44;100892.06;;;24.69;32.33
21129;BME280;10722;51.910;8.352;2023-06-04T11:18:30;100868.94;;;23.79;32.85
21129;BME280;10722;51.910;8.352;2023-06-04T11:21:15;100930.91;;;24.92;33.61
21129;BME280;10722;51.910;8.352;2023-06-04T11:24:01;100918.44;;;24.94;32.88
21129;BME280;10722;51.910;8.352;2023-06-04T11:26:46;100917.75;;;24.42;33.97
21129;BME280;10722;51.910;8.352;2023-06-04T11:29:49;100926.09;;;25.02;33.71
21129;BME280;10722;51.910;8.352;2023-06-04T11:32:35;100908.03;;;24.68;33.43
21129;BME280;10722;51.910;8.352;2023-06-04T11:35:20;100923.28;;;25.50;32.94
21129;BME280;10722;51.910;8.352;2023-06-04T11:38:05;100914.09;;;26.02;32.53
21129;BME280;10722;51.910;8.352;2023-06-04T11:40:59;100910.38;;;25.43;32.68
21129;BME280;10722;51.910;8.352;2023-06-04T11:43:47;100878.63;;;24.97;32.29
21129;BME280;10722;51.910;8.352;2023-06-04T11:46:34;100901.72;;;25.17;32.86
21129;BME280;10722;51.910;8.352;2023-06-04T11:49:20;100852.38;;;25.15;31.20
21129;BME280;10722;51.910;8.352;2023-06-04T11:52:07;100805.81;;;24.43;30.74
21129;BME280;10722;51.910;8.352;2023-06-04T11:54:53;100843.88;;;25.07;31.33
21129;BME280;10722;51.910;8.352;2023-06-04T11:57:41;100810.34;;;25.05;29.97
21129;BME280;10722;51.910;8.352;2023-06-04T12:00:27;100828.97;;;25.04;30.89
21129;BME280;10722;51.910;8.352;2023-06-04T12:03:13;100862.63;;;25.22;31.18
21129;BME280;10722;51.910;8.352;2023-06-04T12:05:58;100863.75;;;25.80;30.97
21129;BME280;10722;51.910;8.352;2023-06-04T12:08:55;100824.75;;;25.83;29.93
21129;BME280;10722;51.910;8.352;2023-06-04T12:11:40;100860.06;;;25.63;31.30
21129;BME280;10722;51.910;8.352;2023-06-04T12:14:26;100825.91;;;24.93;31.26
21129;BME280;10722;51.910;8.352;2023-06-04T12:17:13;100898.34;;;25.77;32.40
21129;BME280;10722;51.910;8.352;2023-06-04T12:19:59;100877.59;;;26.07;31.50
21129;BME280;10722;51.910;8.352;2023-06-04T12:22:47;100838.88;;;25.84;30.66
21129;BME280;10722;51.910;8.352;2023-06-04T12:25:34;100827.38;;;24.78;31.53
21129;BME280;10722;51.910;8.352;2023-06-04T12:28:19;100845.88;;;25.44;31.17
21129;BME280;10722;51.910;8.352;2023-06-04T12:31:15;100861.66;;;24.57;33.35
21129;BME280;10722;51.910;8.352;2023-06-04T12:34:00;100857.97;;;25.07;32.31
21129;BME280;10722;51.910;8.352;2023-06-04T12:36:46;100895.19;;;25.46;32.95
21129;BME280;10722;51.910;8.352;2023-06-04T12:39:32;100849.91;;;25.32;31.63
21129;BME280;10722;51.910;8.352;2023-06-04T12:42:18;100854.28;;;24.89;32.61
21129;BME280;10722;51.910;8.352;2023-06-04T12:45:04;100907.97;;;26.59;32.10
21129;BME280;10722;51.910;8.352;2023-06-04T12:47:50;100877.31;;;26.52;31.02
21129;BME280;10722;51.910;8.352;2023-06-04T12:50:35;100916.50;;;26.85;32.05
21129;BME280;10722;51.910;8.352;2023-06-04T12:53:21;100870.53;;;26.26;31.51
21129;BME280;10722;51.910;8.352;2023-06-04T12:56:06;100799.91;;;25.65;29.93
21129;BME280;10722;51.910;8.352;2023-06-04T12:58:52;100835.22;;;25.86;30.51
21129;BME280;10722;51.910;8.352;2023-06-04T13:01:38;100829.31;;;26.58;29.33
21129;BME280;10722;51.910;8.352;2023-06-04T13:04:23;100828.97;;;26.46;30.31
21129;BME280;10722;51.910;8.352;2023-06-04T13:07:08;100854.09;;;26.38;31.58
21129;BME280;10722;51.910;8.352;2023-06-04T13:09:54;100884.44;;;26.52;32.07
21129;BME280;10722;51.910;8.352;2023-06-04T13:12:39;100861.88;;;26.23;31.53
21129;BME280;10722;51.910;8.352;2023-06-04T13:15:24;100815.94;;;26.22;29.80
21129;BME280;10722;51.910;8.352;2023-06-04T13:18:10;100813.75;;;25.09;31.59
21129;BME280;10722;51.910;8.352;2023-06-04T13:20:56;100841.56;;;24.97;32.60
21129;BME280;10722;51.910;8.352;2023-06-04T13:23:40;100852.59;;;25.09;32.88
21129;BME280;10722;51.910;8.352;2023-06-04T13:26:33;100851.00;;;25.04;32.76
21129;BME280;10722;51.910;8.352;2023-06-04T13:29:18;100882.06;;;24.99;33.38
21129;BME280;10722;51.910;8.352;2023-06-04T13:32:04;100863.13;;;25.32;32.43
21129;BME280;10722;51.910;8.352;2023-06-04T13:34:49;100844.72;;;25.07;31.91
21129;BME280;10722;51.910;8.352;2023-06-04T13:37:34;100823.97;;;24.74;31.91
21129;BME280;10722;51.910;8.352;2023-06-04T13:40:20;100854.31;;;24.88;32.82
21129;BME280;10722;51.910;8.352;2023-06-04T13:43:05;100877.22;;;25.11;33.10
21129;BME280;10722;51.910;8.352;2023-06-04T13:45:50;100861.78;;;24.78;32.59
21129;BME280;10722;51.910;8.352;2023-06-04T13:48:36;100859.16;;;24.54;32.92
21129;BME280;10722;51.910;8.352;2023-06-04T13:51:21;100867.06;;;25.00;32.88
21129;BME280;10722;51.910;8.352;2023-06-04T13:54:06;100839.66;;;24.57;32.58
21129;BME280;10722;51.910;8.352;2023-06-04T13:56:52;100846.97;;;24.50;32.86
21129;BME280;10722;51.910;8.352;2023-06-04T13:59:38;100858.03;;;24.83;32.98
21129;BME280;10722;51.910;8.352;2023-06-04T14:05:09;100875.78;;;24.09;34.56
21129;BME280;10722;51.910;8.352;2023-06-04T14:07:54;100875.66;;;23.87;34.54
21129;BME280;10722;51.910;8.352;2023-06-04T14:10:39;100861.78;;;23.82;34.21
21129;BME280;10722;51.910;8.352;2023-06-04T14:13:25;100881.44;;;23.74;34.75
21129;BME280;10722;51.910;8.352;2023-06-04T14:16:10;100855.50;;;23.60;34.17
21129;BME280;10722;51.910;8.352;2023-06-04T14:18:55;100880.72;;;23.68;34.39
21129;BME280;10722;51.910;8.352;2023-06-04T14:21:44;100889.84;;;23.58;35.15
21129;BME280;10722;51.910;8.352;2023-06-04T14:24:29;100902.56;;;23.99;35.34
21129;BME280;10722;51.910;8.352;2023-06-04T14:27:15;100896.00;;;24.10;34.66
21129;BME280;10722;51.910;8.352;2023-06-04T14:30:04;100888.59;;;24.20;34.22
21129;BME280;10722;51.910;8.352;2023-06-04T14:32:49;100867.75;;;23.87;33.83
21129;BME280;10722;51.910;8.352;2023-06-04T14:35:35;100882.09;;;24.05;34.23
21129;BME280;10722;51.910;8.352;2023-06-04T14:38:21;100846.00;;;23.54;34.00